Time;durP1;ratioP1;P1;durP2;ratioP2;P2;SDS_P1;SDS_P2;PMS_P1;PMS_P2;Temp;Humidity;BMP_temperature;BMP_pressure;BME280_temperature;BME280_humidity;BME280_pressure;Samples;Min_cycle;Max_cycle;Signal;HPM_P1;HPM_P2
2022/04/05 00:01:11;;;;;;;7.68;2.28;;;7.70;99.90;;;;;;4912163;29;20466;-85
2022/04/05 00:03:37;;;;;;;11.73;2.90;;;7.70;99.90;;;;;;4914863;29;20048;-85
2022/04/05 00:06:02;;;;;;;7.40;2.72;;;7.70;99.90;;;;;;4914120;29;20175;-85
2022/04/05 00:08:28;;;;;;;7.75;2.20;;;7.70;99.90;;;;;;4915021;29;20048;-85
2022/04/05 00:10:54;;;;;;;6.28;1.90;;;7.70;99.90;;;;;;4915249;29;20091;-85
2022/04/05 00:13:19;;;;;;;7.32;2.50;;;7.60;99.90;;;;;;4904824;29;20512;-84
2022/04/05 00:15:45;;;;;;;9.23;2.40;;;7.60;99.90;;;;;;4898789;29;20449;-84
2022/04/05 00:18:11;;;;;;;7.25;1.70;;;7.60;99.90;;;;;;4914710;29;20381;-85
2022/04/05 00:20:36;;;;;;;6.38;1.58;;;7.60;99.90;;;;;;4897571;29;20524;-85
2022/04/05 00:23:02;;;;;;;5.40;1.50;;;7.50;99.90;;;;;;4913843;29;20092;-84
2022/04/05 00:25:27;;;;;;;6.72;1.73;;;7.50;99.90;;;;;;4915075;29;20083;-83
2022/04/05 00:27:53;;;;;;;9.00;2.03;;;7.50;99.90;;;;;;4910294;29;20083;-84
2022/04/05 00:30:19;;;;;;;6.18;2.08;;;7.50;99.90;;;;;;4915588;29;20048;-85
2022/04/05 00:32:44;;;;;;;7.00;1.75;;;7.50;99.90;;;;;;4927595;29;20036;-84
2022/04/05 00:35:10;;;;;;;9.50;2.20;;;7.50;99.90;;;;;;4913534;29;20071;-84
2022/04/05 00:37:36;;;;;;;4.85;1.38;;;7.50;99.90;;;;;;4914670;29;20055;-84
2022/04/05 00:40:05;;;;;;;7.22;1.60;;;7.40;99.90;;;;;;4914018;29;20434;-85
2022/04/05 00:42:31;;;;;;;5.88;1.30;;;7.40;99.90;;;;;;4897402;29;20456;-85
2022/04/05 00:44:58;;;;;;;6.47;1.58;;;7.40;99.90;;;;;;4924416;29;20052;-84
2022/04/05 00:47:24;;;;;;;6.78;1.48;;;7.40;99.90;;;;;;4914741;29;20051;-84
2022/04/05 00:49:52;;;;;;;7.38;1.45;;;7.40;99.90;;;;;;4897336;29;20401;-84
2022/04/05 00:52:20;;;;;;;8.73;2.10;;;7.40;99.90;;;;;;4889388;29;20055;-85
2022/04/05 00:54:47;;;;;;;5.93;1.42;;;7.40;99.90;;;;;;4897133;29;20099;-84
2022/04/05 00:57:15;;;;;;;6.43;1.90;;;7.40;99.90;;;;;;4885155;29;20056;-85
2022/04/05 00:59:43;;;;;;;6.78;1.48;;;7.40;99.90;;;;;;4914463;29;20119;-84
2022/04/05 01:02:14;;;;;;;5.60;1.35;;;7.30;99.90;;;;;;4913043;29;20087;-84
2022/04/05 01:04:42;;;;;;;;;;;7.30;99.90;;;;;;4914289;29;20379;-85
2022/04/05 01:07:19;;;;;;;6.85;1.30;;;7.20;99.90;;;;;;4912744;29;20399;-85
2022/04/05 01:09:46;;;;;;;4.38;1.52;;;7.20;99.90;;;;;;4914414;29;20051;-85
2022/04/05 01:12:14;;;;;;;5.55;1.23;;;7.30;99.90;;;;;;4902401;29;20080;-85
2022/04/05 01:14:40;;;;;;;6.82;1.33;;;7.20;99.90;;;;;;4897360;29;20072;-84
2022/04/05 01:17:07;;;;;;;5.93;1.15;;;7.20;99.90;;;;;;4912884;29;20040;-85
2022/04/05 01:19:33;;;;;;;5.65;1.45;;;7.20;99.90;;;;;;4904100;29;20051;-84
2022/04/05 01:21:59;;;;;;;4.57;1.35;;;7.20;99.90;;;;;;4922290;29;20040;-85
2022/04/05 01:24:25;;;;;;;7.03;1.33;;;7.20;99.90;;;;;;4931791;29;20055;-84
2022/04/05 01:26:54;;;;;;;8.43;1.80;;;7.20;99.90;;;;;;4907233;29;20044;-85
2022/04/05 01:29:21;;;;;;;7.85;1.42;;;7.20;99.90;;;;;;4914007;29;20406;-84
2022/04/05 01:31:59;;;;;;;7.03;1.27;;;7.20;99.90;;;;;;4893669;29;20230;-84
2022/04/05 01:34:26;;;;;;;7.80;1.63;;;7.20;99.90;;;;;;4896406;29;20059;-85
2022/04/05 01:36:55;;;;;;;6.07;1.63;;;7.20;99.90;;;;;;4916726;29;20040;-84
2022/04/05 01:39:23;;;;;;;8.05;1.50;;;7.20;99.90;;;;;;4929771;29;20185;-86
2022/04/05 01:41:55;;;;;;;8.82;1.52;;;7.20;99.90;;;;;;4913697;29;20091;-85
2022/04/05 01:44:21;;;;;;;6.05;1.73;;;7.20;99.90;;;;;;4880692;29;20067;-85
2022/04/05 01:46:48;;;;;;;7.47;1.98;;;7.20;99.90;;;;;;4896443;29;20062;-85
2022/04/05 01:49:14;;;;;;;6.47;1.77;;;7.20;99.90;;;;;;4912250;29;20127;-84
2022/04/05 01:51:40;;;;;;;5.15;1.40;;;7.20;99.90;;;;;;4915480;29;20076;-85
2022/04/05 01:54:10;;;;;;;5.80;1.77;;;7.20;99.90;;;;;;4918651;29;20052;-84
2022/04/05 01:56:47;;;;;;;5.22;1.17;;;7.20;99.90;;;;;;4920147;29;20060;-84
2022/04/05 01:59:16;;;;;;;7.55;1.90;;;7.20;99.90;;;;;;4919671;29;20048;-85
2022/04/05 02:01:42;;;;;;;6.60;1.38;;;7.20;99.90;;;;;;4922088;29;20044;-85
2022/04/05 02:04:09;;;;;;;4.53;1.33;;;7.20;99.90;;;;;;4915004;29;20126;-85
2022/04/05 02:06:36;;;;;;;10.52;1.67;;;7.20;99.90;;;;;;4913453;29;20134;-85
2022/04/05 02:09:01;;;;;;;5.68;1.80;;;7.20;99.90;;;;;;4895832;29;20048;-85
2022/04/05 02:11:27;;;;;;;7.00;2.10;;;7.10;99.90;;;;;;4913677;29;20161;-85
2022/04/05 02:13:53;;;;;;;6.25;2.13;;;7.20;99.90;;;;;;4913085;29;20119;-84
2022/04/05 02:16:18;;;;;;;7.60;1.50;;;7.20;99.90;;;;;;4912197;29;20048;-84
2022/04/05 02:18:44;;;;;;;5.10;1.45;;;7.10;99.90;;;;;;4913777;29;20415;-84
2022/04/05 02:21:10;;;;;;;6.22;1.33;;;7.10;99.90;;;;;;4919604;29;20052;-86
2022/04/05 02:23:36;;;;;;;6.65;2.00;;;7.10;99.90;;;;;;4932505;29;20048;-84
2022/04/05 02:26:02;;;;;;;6.60;1.55;;;7.10;99.90;;;;;;4925271;29;20047;-84
2022/04/05 02:28:28;;;;;;;5.03;1.65;;;7.10;99.90;;;;;;4915952;29;20052;-85
2022/04/05 02:30:54;;;;;;;5.60;1.55;;;7.10;99.90;;;;;;4910815;29;20036;-84
2022/04/05 02:33:20;;;;;;;5.60;1.88;;;7.10;99.90;;;;;;4916805;29;20044;-85
2022/04/05 02:35:46;;;;;;;5.15;1.30;;;7.10;99.90;;;;;;4910497;29;20453;-85
2022/04/05 02:38:11;;;;;;;7.03;1.40;;;7.10;99.90;;;;;;4899136;29;20058;-85
2022/04/05 02:40:37;;;;;;;6.00;1.38;;;7.10;99.90;;;;;;4900043;29;20146;-84
2022/04/05 02:43:03;;;;;;;7.22;1.50;;;7.10;99.90;;;;;;4898872;29;20154;-85
2022/04/05 02:45:30;;;;;;;5.82;1.45;;;7.10;99.90;;;;;;4913301;29;20132;-84
2022/04/05 02:47:56;;;;;;;6.03;1.60;;;7.10;99.90;;;;;;4916956;29;20056;-85
2022/04/05 02:50:21;;;;;;;7.65;2.00;;;7.10;99.90;;;;;;4899375;29;20088;-85
2022/04/05 02:52:48;;;;;;;3.88;1.33;;;7.10;99.90;;;;;;4919048;29;20429;-84
2022/04/05 02:55:15;;;;;;;8.88;2.22;;;7.10;99.90;;;;;;4932631;29;20122;-85
2022/04/05 02:57:42;;;;;;;3.38;1.23;;;7.10;99.90;;;;;;4915540;29;20051;-86
2022/04/05 03:00:08;;;;;;;5.07;1.20;;;7.10;99.90;;;;;;4915482;29;20044;-85
2022/04/05 03:02:35;;;;;;;5.65;1.92;;;7.10;99.90;;;;;;4915387;29;20075;-85
2022/04/05 03:05:01;;;;;;;6.32;1.77;;;7.10;99.90;;;;;;4916144;29;20060;-85
2022/04/05 03:07:27;;;;;;;6.13;1.70;;;7.20;99.90;;;;;;4899802;29;20048;-86
2022/04/05 03:09:53;;;;;;;7.78;2.25;;;7.20;99.90;;;;;;4916700;29;20387;-85
2022/04/05 03:12:19;;;;;;;6.20;2.10;;;7.20;99.90;;;;;;4897268;29;20108;-85
2022/04/05 03:14:45;;;;;;;6.85;1.67;;;7.20;99.90;;;;;;4915934;29;20101;-86
2022/04/05 03:17:12;;;;;;;5.32;1.25;;;7.20;99.90;;;;;;4915124;29;20651;-85
2022/04/05 03:19:38;;;;;;;5.88;1.52;;;7.10;99.90;;;;;;4915986;29;20090;-85
2022/04/05 03:22:05;;;;;;;5.68;1.33;;;7.10;99.90;;;;;;4898191;29;20127;-85
2022/04/05 03:24:31;;;;;;;6.07;1.60;;;7.20;99.90;;;;;;4916103;29;20080;-85
2022/04/05 03:26:57;;;;;;;6.28;1.40;;;7.20;99.90;;;;;;4915007;29;20095;-85
2022/04/05 03:29:23;;;;;;;7.70;2.38;;;7.20;99.90;;;;;;4882689;29;20048;-85
2022/04/05 03:31:49;;;;;;;8.43;2.67;;;7.20;99.90;;;;;;4915504;29;20555;-85
2022/04/05 03:34:14;;;;;;;10.07;2.15;;;7.20;99.90;;;;;;4915159;29;20632;-85
2022/04/05 03:36:43;;;;;;;8.15;2.33;;;7.20;99.90;;;;;;4900815;29;20126;-85
2022/04/05 03:39:10;;;;;;;7.65;2.40;;;7.30;99.90;;;;;;4882090;29;20051;-86
2022/04/05 03:41:36;;;;;;;7.72;2.30;;;7.30;99.90;;;;;;4915987;29;20072;-85
2022/04/05 03:44:02;;;;;;;8.18;2.05;;;7.30;99.90;;;;;;4914662;29;20072;-84
2022/04/05 03:46:28;;;;;;;7.85;2.03;;;7.20;99.90;;;;;;4900167;29;20043;-84
2022/04/05 03:48:54;;;;;;;9.07;2.47;;;7.20;99.90;;;;;;4898991;29;20107;-85
2022/04/05 03:51:20;;;;;;;5.30;1.60;;;7.30;99.90;;;;;;4930588;29;20441;-86
2022/04/05 03:53:45;;;;;;;7.20;1.80;;;7.20;99.90;;;;;;4928913;29;20048;-85
2022/04/05 03:56:11;;;;;;;5.63;1.75;;;7.20;99.90;;;;;;4914008;29;20055;-85
2022/04/05 03:58:36;;;;;;;8.43;1.95;;;7.20;99.90;;;;;;4912913;29;20501;-85
2022/04/05 04:01:02;;;;;;;9.00;1.80;;;7.20;99.90;;;;;;4914892;29;20442;-86
2022/04/05 04:03:28;;;;;;;8.40;2.17;;;7.20;99.90;;;;;;4915092;29;20053;-85
2022/04/05 04:05:54;;;;;;;7.30;2.10;;;7.20;99.90;;;;;;4902774;29;20088;-86
2022/04/05 04:08:19;;;;;;;9.25;2.50;;;7.20;99.90;;;;;;4897154;29;20051;-85
2022/04/05 04:10:48;;;;;;;10.27;2.15;;;7.20;99.90;;;;;;4915585;29;20130;-85
2022/04/05 04:13:14;;;;;;;6.72;1.85;;;7.20;99.90;;;;;;4897161;29;20040;-86
2022/04/05 04:15:40;;;;;;;9.63;2.63;;;7.20;99.90;;;;;;4898297;29;20052;-85
2022/04/05 04:18:06;;;;;;;9.95;2.90;;;7.20;99.90;;;;;;4913366;29;20048;-85
2022/04/05 04:20:32;;;;;;;10.82;2.88;;;7.20;99.90;;;;;;4884564;29;20157;-85
2022/04/05 04:22:57;;;;;;;9.88;3.00;;;7.20;99.90;;;;;;4881859;29;20054;-85
2022/04/05 04:25:23;;;;;;;6.80;2.17;;;7.20;99.90;;;;;;4898126;29;20068;-84
2022/04/05 04:27:48;;;;;;;7.95;2.20;;;7.20;99.90;;;;;;4882438;29;20469;-85
2022/04/05 04:30:14;;;;;;;7.95;1.98;;;7.20;99.90;;;;;;4896836;29;20095;-85
2022/04/05 04:32:39;;;;;;;10.55;3.20;;;7.10;99.90;;;;;;4914582;29;20513;-84
2022/04/05 04:35:07;;;;;;;8.18;1.98;;;7.20;99.90;;;;;;4914147;29;20048;-85
2022/04/05 04:37:33;;;;;;;10.02;3.13;;;7.20;99.90;;;;;;4914164;29;20055;-85
2022/04/05 04:39:59;;;;;;;9.65;2.28;;;7.10;99.90;;;;;;4897660;29;20048;-85
2022/04/05 04:42:24;;;;;;;9.30;2.53;;;7.10;99.90;;;;;;4880967;29;20048;-85
2022/04/05 04:44:50;;;;;;;9.30;2.40;;;7.10;99.90;;;;;;4929142;29;20112;-86
2022/04/05 04:47:17;;;;;;;11.30;2.55;;;7.10;99.90;;;;;;4913002;29;20502;-85
2022/04/05 04:49:43;;;;;;;9.75;3.10;;;7.10;99.90;;;;;;4915490;29;20367;-85
2022/04/05 04:52:09;;;;;;;9.80;3.30;;;7.20;99.90;;;;;;4912000;29;20044;-85
2022/04/05 04:54:34;;;;;;;7.55;2.50;;;7.20;99.90;;;;;;4913431;29;20387;-85
2022/04/05 04:57:00;;;;;;;10.38;2.95;;;7.10;99.90;;;;;;4911992;29;20044;-85
2022/04/05 04:59:26;;;;;;;10.02;2.53;;;7.10;99.90;;;;;;4897611;29;20375;-86
2022/04/05 05:01:51;;;;;;;8.07;2.60;;;7.10;99.90;;;;;;4913177;29;20070;-85
2022/04/05 05:04:17;;;;;;;9.05;3.38;;;7.10;99.90;;;;;;4896033;29;20104;-85
2022/04/05 05:06:42;;;;;;;9.73;3.35;;;7.10;99.90;;;;;;4914165;29;20424;-84
2022/04/05 05:09:08;;;;;;;10.25;2.78;;;7.10;99.90;;;;;;4895796;29;20494;-85
2022/04/05 05:11:33;;;;;;;9.15;2.42;;;7.10;99.90;;;;;;4896764;29;20143;-84
2022/04/05 05:13:59;;;;;;;10.43;2.60;;;7.10;99.90;;;;;;4896228;29;20055;-85
2022/04/05 05:16:25;;;;;;;7.28;2.45;;;7.10;99.90;;;;;;4896848;29;20410;-84
2022/04/05 05:18:50;;;;;;;10.70;3.95;;;7.10;99.90;;;;;;4901996;29;20513;-84
2022/04/05 05:21:18;;;;;;;9.13;2.83;;;7.10;99.90;;;;;;4913106;29;20349;-85
2022/04/05 05:23:44;;;;;;;12.25;4.35;;;7.10;99.90;;;;;;4913839;29;20131;-84
2022/04/05 05:26:10;;;;;;;10.85;3.03;;;7.10;99.90;;;;;;4895955;29;20131;-84
2022/04/05 05:28:35;;;;;;;9.05;2.38;;;7.10;99.90;;;;;;4913909;29;20103;-85
2022/04/05 05:31:01;;;;;;;11.10;3.58;;;7.10;99.90;;;;;;4924697;29;20581;-85
2022/04/05 05:33:26;;;;;;;9.02;2.60;;;7.10;99.90;;;;;;4905648;29;20489;-85
2022/04/05 05:35:52;;;;;;;10.27;2.80;;;7.10;99.90;;;;;;4897033;29;20374;-84
2022/04/05 05:38:17;;;;;;;10.02;2.45;;;7.10;99.90;;;;;;4911862;29;20059;-85
2022/04/05 05:40:43;;;;;;;8.93;2.30;;;7.10;99.90;;;;;;4904152;29;20078;-84
2022/04/05 05:43:09;;;;;;;7.38;2.38;;;7.10;99.90;;;;;;4912226;29;20064;-85
2022/04/05 05:45:36;;;;;;;10.23;2.58;;;7.10;99.90;;;;;;4913233;29;20055;-85
2022/04/05 05:48:03;;;;;;;9.40;2.67;;;7.20;99.90;;;;;;4898211;29;20393;-84
2022/04/05 05:50:29;;;;;;;9.15;2.42;;;7.20;99.90;;;;;;4881038;29;20594;-85
2022/04/05 05:52:55;;;;;;;9.73;2.63;;;7.20;99.90;;;;;;4895975;29;20111;-85
2022/04/05 05:55:22;;;;;;;9.20;2.65;;;7.20;99.90;;;;;;4895618;29;20140;-85
2022/04/05 05:57:48;;;;;;;9.35;2.03;;;7.20;99.90;;;;;;4913018;29;20032;-86
2022/04/05 06:00:22;;;;;;;7.85;2.95;;;7.20;99.90;;;;;;4895484;29;20045;-86
2022/04/05 06:02:58;;;;;;;9.15;3.00;;;7.30;99.90;;;;;;4896808;29;20047;-87
2022/04/05 06:05:24;;;;;;;12.15;3.50;;;7.30;99.90;;;;;;4896013;29;20040;-86
2022/04/05 06:07:50;;;;;;;9.45;3.10;;;7.40;99.90;;;;;;4911738;29;20048;-86
2022/04/05 06:10:16;;;;;;;6.97;2.03;;;7.40;99.90;;;;;;4872513;29;20070;-86
2022/04/05 06:12:45;;;;;;;7.15;2.08;;;7.40;99.90;;;;;;4916779;29;20047;-85
2022/04/05 06:15:12;;;;;;;9.65;2.75;;;7.40;99.90;;;;;;4914415;29;20053;-88
2022/04/05 06:17:40;;;;;;;11.07;2.80;;;7.40;99.90;;;;;;4902151;29;20044;-86
2022/04/05 06:20:07;;;;;;;7.97;2.53;;;7.40;99.90;;;;;;4915193;29;20039;-87
2022/04/05 06:23:05;;;;;;;9.00;2.20;;;7.50;99.90;;;;;;4910407;29;20051;-86
2022/04/05 06:25:34;;;;;;;9.77;1.90;;;7.40;99.90;;;;;;4899999;29;20052;-87
2022/04/05 06:28:03;;;;;;;7.15;1.88;;;7.40;99.90;;;;;;4880291;29;20058;-86
2022/04/05 06:30:30;;;;;;;9.07;2.70;;;7.40;99.90;;;;;;4898093;29;20040;-86
2022/04/05 06:33:13;;;;;;;7.60;1.80;;;7.40;99.90;;;;;;4896311;29;20106;-86
2022/04/05 06:35:42;;;;;;;8.43;1.80;;;7.50;99.90;;;;;;4913050;29;20728;-86
2022/04/05 06:38:09;;;;;;;6.75;1.77;;;7.40;99.90;;;;;;4895415;29;20044;-86
2022/04/05 06:40:35;;;;;;;7.00;2.03;;;7.40;99.90;;;;;;4895919;29;20080;-86
2022/04/05 06:43:01;;;;;;;4.03;1.38;;;7.50;99.90;;;;;;4895252;29;20084;-86
2022/04/05 06:45:27;;;;;;;7.15;1.73;;;7.50;99.90;;;;;;4884443;29;20044;-84
2022/04/05 06:47:53;;;;;;;7.20;1.83;;;7.50;99.90;;;;;;4913300;29;20143;-84
2022/04/05 06:50:24;;;;;;;7.57;2.20;;;7.50;99.90;;;;;;4905096;29;20103;-84
2022/04/05 06:52:55;;;;;;;7.55;2.17;;;7.60;99.90;;;;;;4896759;29;20135;-85
2022/04/05 06:55:21;;;;;;;7.90;2.28;;;7.70;99.90;;;;;;4912806;29;20039;-86
2022/04/05 06:57:47;;;;;;;6.63;2.20;;;7.70;99.90;;;;;;4912897;29;20048;-85
2022/04/05 07:00:13;;;;;;;7.97;2.28;;;7.80;99.90;;;;;;4926559;29;20449;-85
2022/04/05 07:02:40;;;;;;;8.82;2.00;;;7.80;99.90;;;;;;4899109;29;20043;-85
2022/04/05 07:05:07;;;;;;;7.35;1.95;;;7.90;99.90;;;;;;4930824;29;20134;-86
2022/04/05 07:07:33;;;;;;;7.32;1.67;;;7.90;99.90;;;;;;4912821;29;20047;-86
2022/04/05 07:09:58;;;;;;;6.57;1.73;;;7.90;99.90;;;;;;4896518;29;20044;-86
2022/04/05 07:12:24;;;;;;;8.15;1.70;;;8.00;99.90;;;;;;4917781;29;20417;-86
2022/04/05 07:14:51;;;;;;;6.25;1.60;;;8.00;99.90;;;;;;4915278;29;20545;-87
2022/04/05 07:17:17;;;;;;;6.47;1.90;;;8.00;99.90;;;;;;4901297;29;20120;-86
2022/04/05 07:19:42;;;;;;;4.10;1.42;;;8.00;99.90;;;;;;4916096;29;20049;-85
2022/04/05 07:22:08;;;;;;;7.05;1.73;;;8.00;99.90;;;;;;4921507;29;20063;-85
2022/04/05 07:24:33;;;;;;;6.03;1.48;;;8.00;99.90;;;;;;4906163;29;20048;-85
2022/04/05 07:26:59;;;;;;;6.18;1.55;;;8.00;99.90;;;;;;4917876;29;20043;-85
2022/04/05 07:29:24;;;;;;;7.15;2.15;;;8.00;99.90;;;;;;4928909;29;20112;-87
2022/04/05 07:31:50;;;;;;;5.78;1.70;;;8.00;99.90;;;;;;4921845;29;20039;-85
2022/04/05 07:34:15;;;;;;;5.05;1.35;;;8.00;99.90;;;;;;4919255;29;20043;-86
2022/04/05 07:36:41;;;;;;;5.70;1.38;;;8.10;99.90;;;;;;4897843;29;20060;-88
2022/04/05 07:39:07;;;;;;;4.82;1.48;;;8.00;99.90;;;;;;4914210;29;20048;-87
2022/04/05 07:41:33;;;;;;;8.15;1.88;;;8.10;99.90;;;;;;4915547;29;20138;-89
2022/04/05 07:43:58;;;;;;;4.85;1.35;;;8.20;99.90;;;;;;4922010;29;20612;-86
2022/04/05 07:46:24;;;;;;;7.07;1.27;;;8.30;99.90;;;;;;4915756;29;20479;-86
2022/04/05 07:48:50;;;;;;;7.20;2.15;;;8.30;99.90;;;;;;4916074;29;20072;-86
2022/04/05 07:51:17;;;;;;;5.22;1.45;;;8.30;99.90;;;;;;4914419;29;20417;-86
2022/04/05 07:53:42;;;;;;;4.15;1.52;;;8.40;99.90;;;;;;4883405;29;20048;-88
2022/04/05 07:56:12;;;;;;;4.03;1.02;;;8.40;99.90;;;;;;4915138;29;20510;-86
2022/04/05 07:58:38;;;;;;;6.85;1.45;;;8.40;99.90;;;;;;4898818;29;20097;-86
2022/04/05 08:01:04;;;;;;;4.35;1.42;;;8.40;99.90;;;;;;4898118;29;20727;-86
2022/04/05 08:03:30;;;;;;;5.50;1.45;;;8.40;99.90;;;;;;4915424;29;20084;-86
2022/04/05 08:05:55;;;;;;;5.22;1.58;;;8.50;99.90;;;;;;4915229;29;20032;-85
2022/04/05 08:08:21;;;;;;;4.88;1.70;;;8.50;99.90;;;;;;4898455;29;20056;-86
2022/04/05 08:10:47;;;;;;;6.20;2.20;;;8.50;99.90;;;;;;4898698;29;20047;-86
2022/04/05 08:13:12;;;;;;;5.85;2.28;;;8.50;99.90;;;;;;4897402;29;20091;-86
2022/04/05 08:15:41;;;;;;;4.13;1.42;;;8.50;99.90;;;;;;4905190;29;20036;-86
2022/04/05 08:18:08;;;;;;;5.80;1.65;;;8.50;99.90;;;;;;4897461;29;20048;-87
2022/04/05 08:20:34;;;;;;;6.20;1.80;;;8.60;99.90;;;;;;4914617;29;20040;-86
2022/04/05 08:22:59;;;;;;;5.70;1.90;;;8.60;99.90;;;;;;4913549;29;20044;-86
2022/04/05 08:25:25;;;;;;;6.78;1.90;;;8.60;99.90;;;;;;4882508;29;20114;-88
2022/04/05 08:27:51;;;;;;;6.13;1.70;;;8.70;99.90;;;;;;4915724;29;20549;-89
2022/04/05 08:30:18;;;;;;;6.25;1.70;;;8.60;99.90;;;;;;4897712;29;20179;-89
2022/04/05 08:32:45;;;;;;;5.05;1.42;;;8.60;99.90;;;;;;4915597;29;20051;-86
2022/04/05 08:35:14;;;;;;;6.18;1.65;;;8.60;99.90;;;;;;4915276;29;20051;-86
2022/04/05 08:37:41;;;;;;;7.45;1.70;;;8.70;99.90;;;;;;4903153;29;20052;-85
2022/04/05 08:40:08;;;;;;;6.20;1.65;;;8.70;99.90;;;;;;4898200;29;20084;-86
2022/04/05 08:42:35;;;;;;;5.85;1.80;;;8.80;99.90;;;;;;4899904;29;20058;-85
2022/04/05 08:45:04;;;;;;;6.03;1.52;;;8.80;99.90;;;;;;4896532;29;20127;-86
2022/04/05 08:47:30;;;;;;;7.32;1.83;;;8.90;99.90;;;;;;4910875;29;20039;-84
2022/04/05 08:49:57;;;;;;;4.88;1.83;;;8.80;99.90;;;;;;4913339;29;20103;-85
2022/04/05 08:52:23;;;;;;;5.75;1.80;;;8.80;99.90;;;;;;4913694;29;20055;-85
2022/04/05 08:54:48;;;;;;;6.57;1.60;;;8.90;99.90;;;;;;4915721;29;20075;-85
2022/04/05 08:57:14;;;;;;;4.90;1.58;;;8.90;99.90;;;;;;4898366;29;20496;-85
2022/04/05 08:59:40;;;;;;;6.63;1.88;;;8.90;99.90;;;;;;4914059;29;20032;-85
2022/04/05 09:02:07;;;;;;;6.95;2.60;;;9.00;99.90;;;;;;4912502;29;20059;-85
2022/04/05 09:04:34;;;;;;;6.97;2.10;;;9.00;99.90;;;;;;4913315;29;20056;-86
2022/04/05 09:07:40;;;;;;;6.38;1.80;;;9.10;99.90;;;;;;4913064;29;20036;-85
2022/04/05 09:10:07;;;;;;;5.18;1.85;;;9.10;99.90;;;;;;4870252;29;20041;-86
2022/04/05 09:12:59;;;;;;;7.57;1.70;;;9.10;99.90;;;;;;4890002;29;20052;-86
2022/04/05 09:15:25;;;;;;;;;;;9.10;99.90;;;;;;4889884;29;20057;-85
2022/04/05 09:17:52;;;;;;;2.88;1.27;;;9.10;99.90;;;;;;4873942;29;20389;-85
2022/04/05 09:20:20;;;;;;;4.13;1.45;;;9.10;99.90;;;;;;4896798;29;20053;-85
2022/04/05 09:22:46;;;;;;;5.05;1.70;;;9.20;99.90;;;;;;4877458;29;20044;-84
2022/04/05 09:25:14;;;;;;;3.22;1.13;;;9.20;99.90;;;;;;4878276;29;20430;-84
2022/04/05 09:27:57;;;;;;;4.35;1.50;;;9.30;99.90;;;;;;4873778;29;20114;-84
2022/04/05 09:30:24;;;;;;;2.92;1.33;;;9.40;99.90;;;;;;4874000;29;20431;-85
2022/04/05 09:32:51;;;;;;;3.67;1.50;;;9.50;99.90;;;;;;4873489;29;20053;-85
2022/04/05 09:35:20;;;;;;;3.17;1.30;;;9.50;99.90;;;;;;4859502;29;20144;-85
2022/04/05 09:37:46;;;;;;;2.45;1.30;;;9.60;99.90;;;;;;4908377;29;20506;-86
2022/04/05 09:40:20;;;;;;;3.75;1.60;;;9.70;99.90;;;;;;4896978;29;20080;-86
2022/04/05 09:43:15;;;;;;;2.92;1.20;;;9.80;99.90;;;;;;4913612;29;20055;-86
2022/04/05 09:45:41;;;;;;;2.80;1.20;;;9.90;99.90;;;;;;4908808;29;20075;-86
2022/04/05 09:48:08;;;;;;;2.03;0.90;;;10.00;99.90;;;;;;4912142;29;20079;-86
2022/04/05 09:51:02;;;;;;;1.88;1.00;;;10.20;99.90;;;;;;4914616;29;20051;-85
2022/04/05 09:53:41;;;;;;;2.25;1.20;;;10.20;99.90;;;;;;4896940;29;20379;-86
2022/04/05 09:56:22;;;;;;;2.53;1.15;;;10.20;99.90;;;;;;4911500;29;20047;-85
2022/04/05 09:58:55;;;;;;;3.67;1.30;;;10.20;99.90;;;;;;4896582;29;20080;-86
2022/04/05 10:01:27;;;;;;;2.75;1.40;;;10.20;99.90;;;;;;4880671;29;20051;-85
2022/04/05 10:04:05;;;;;;;5.50;2.60;;;10.20;99.90;;;;;;4896504;29;20122;-86
2022/04/05 10:06:32;;;;;;;5.82;2.97;;;10.20;99.90;;;;;;4913410;29;20052;-86
2022/04/05 10:08:59;;;;;;;6.70;3.42;;;10.20;99.90;;;;;;4879622;29;20036;-85
2022/04/05 10:11:27;;;;;;;8.13;4.97;;;10.10;99.90;;;;;;4918937;29;20040;-85
2022/04/05 10:13:53;;;;;;;8.68;5.82;;;10.10;99.90;;;;;;4912085;29;20044;-84
2022/04/05 10:16:21;;;;;;;8.70;5.88;;;10.10;99.90;;;;;;4914192;29;20055;-85
2022/04/05 10:18:48;;;;;;;10.02;6.22;;;10.10;99.90;;;;;;4908287;29;20098;-86
2022/04/05 10:21:15;;;;;;;9.65;5.95;;;10.10;99.90;;;;;;4912112;29;20048;-85
2022/04/05 10:23:46;;;;;;;7.63;4.15;;;10.20;99.90;;;;;;4895774;29;20044;-85
2022/04/05 10:26:18;;;;;;;6.50;3.42;;;10.10;99.90;;;;;;4927272;29;20162;-84
2022/04/05 10:28:47;;;;;;;7.03;3.20;;;10.10;99.90;;;;;;4913342;29;20073;-85
2022/04/05 10:31:22;;;;;;;6.72;3.13;;;10.10;99.90;;;;;;4916267;29;20453;-85
2022/04/05 10:34:06;;;;;;;6.05;3.00;;;10.10;99.90;;;;;;4917353;29;20051;-85
2022/04/05 10:36:32;;;;;;;6.65;3.35;;;10.10;99.90;;;;;;4897761;29;20067;-84
2022/04/05 10:39:19;;;;;;;7.32;3.60;;;10.20;99.90;;;;;;4897201;29;20052;-84
2022/04/05 10:42:07;;;;;;;7.28;3.85;;;10.30;99.90;;;;;;4917627;29;20071;-84
2022/04/05 10:44:33;;;;;;;7.07;4.00;;;10.40;99.90;;;;;;4908173;29;20075;-84
2022/04/05 10:47:01;;;;;;;7.55;4.20;;;10.50;99.90;;;;;;4916944;29;20039;-83
2022/04/05 10:49:44;;;;;;;8.18;4.30;;;10.60;99.90;;;;;;4903766;29;20130;-83
2022/04/05 10:52:18;;;;;;;7.05;4.00;;;10.70;99.90;;;;;;4914452;29;20072;-85
2022/04/05 10:54:49;;;;;;;7.85;4.30;;;10.80;99.90;;;;;;4915230;29;20048;-86
2022/04/05 10:57:29;;;;;;;7.15;4.18;;;10.70;99.90;;;;;;4897537;29;20060;-86
2022/04/05 10:59:58;;;;;;;7.43;4.20;;;10.70;99.90;;;;;;4913905;29;20044;-83
2022/04/05 11:02:35;;;;;;;7.82;4.70;;;10.70;99.90;;;;;;4898367;29;20052;-86
2022/04/05 11:05:18;;;;;;;7.72;4.53;;;10.80;99.90;;;;;;4895226;29;20413;-85
2022/04/05 11:08:01;;;;;;;7.63;4.50;;;10.90;99.90;;;;;;4880321;29;20060;-85
2022/04/05 11:10:36;;;;;;;7.38;4.15;;;11.00;99.90;;;;;;4905156;29;20498;-85
2022/04/05 11:13:13;;;;;;;7.50;4.30;;;11.10;99.90;;;;;;4912882;29;20059;-85
2022/04/05 11:15:46;;;;;;;7.20;4.07;;;11.20;99.90;;;;;;4907420;29;20070;-87
2022/04/05 11:18:14;;;;;;;7.45;4.20;;;11.20;99.90;;;;;;4907016;29;20083;-85
2022/04/05 11:20:41;;;;;;;8.05;4.18;;;11.30;99.90;;;;;;4915468;29;20079;-86
2022/04/05 11:23:08;;;;;;;7.38;4.30;;;11.30;99.90;;;;;;4916234;29;20055;-87
2022/04/05 11:25:35;;;;;;;6.40;3.60;;;11.30;99.90;;;;;;4901423;29;20070;-85
2022/04/05 11:28:19;;;;;;;6.90;3.65;;;11.30;99.90;;;;;;4900008;29;20399;-86
2022/04/05 11:30:55;;;;;;;6.63;3.75;;;11.40;99.90;;;;;;4914518;29;20071;-86
2022/04/05 11:33:36;;;;;;;7.18;3.95;;;11.50;99.90;;;;;;4913624;29;20920;-85
2022/04/05 11:36:14;;;;;;;6.43;3.40;;;11.70;99.90;;;;;;4914001;29;20434;-86
2022/04/05 11:38:48;;;;;;;6.15;3.25;;;11.70;99.90;;;;;;4915105;29;20096;-86
2022/04/05 11:41:21;;;;;;;6.30;3.53;;;11.70;99.90;;;;;;4879033;29;1024542;-86
2022/04/05 11:43:54;;;;;;;6.50;3.72;;;11.60;99.90;;;;;;4898557;29;20327;-85
2022/04/05 11:46:31;;;;;;;8.43;3.72;;;11.50;99.90;;;;;;4915428;29;20486;-85
2022/04/05 11:48:59;;;;;;;7.07;4.10;;;11.60;99.90;;;;;;4915002;29;20433;-85
2022/04/05 11:51:28;;;;;;;6.55;3.60;;;11.70;99.90;;;;;;4914379;29;20055;-86
2022/04/05 11:54:02;;;;;;;7.55;4.10;;;11.80;99.90;;;;;;4914755;29;20051;-86
2022/04/05 11:56:28;;;;;;;7.57;4.03;;;11.80;99.90;;;;;;4896995;29;20051;-86
2022/04/05 11:58:57;;;;;;;7.88;4.05;;;11.80;99.90;;;;;;4915367;29;20693;-86
2022/04/05 12:01:24;;;;;;;9.13;4.55;;;11.80;99.90;;;;;;4913931;29;20052;-87
2022/04/05 12:03:55;;;;;;;7.90;4.43;;;11.80;99.90;;;;;;4915640;29;20048;-86
2022/04/05 12:06:32;;;;;;;10.97;4.67;;;11.90;99.90;;;;;;4914210;29;20052;-88
2022/04/05 12:08:59;;;;;;;8.27;4.40;;;11.90;99.90;;;;;;4915167;29;20044;-87
2022/04/05 12:11:30;;;;;;;8.55;5.28;;;11.90;99.90;;;;;;4879450;29;20155;-88
2022/04/05 12:13:58;;;;;;;8.18;5.03;;;11.90;99.90;;;;;;4905335;29;20058;-88
2022/04/05 12:16:28;;;;;;;9.25;5.13;;;11.90;99.90;;;;;;4916956;29;20095;-86
2022/04/05 12:18:55;;;;;;;7.80;4.75;;;12.00;99.90;;;;;;4917490;29;20055;-86
2022/04/05 12:21:21;;;;;;;8.43;5.15;;;12.10;99.90;;;;;;4934664;29;20052;-87
2022/04/05 12:23:48;;;;;;;13.15;5.97;;;12.00;99.90;;;;;;4939378;29;20095;-88
2022/04/05 12:26:18;;;;;;;9.38;5.30;;;12.10;99.90;;;;;;4936149;29;20047;-87
2022/04/05 12:28:47;;;;;;;9.77;5.80;;;12.00;99.90;;;;;;4924424;29;20094;-87
2022/04/05 12:31:17;;;;;;;9.25;5.35;;;12.00;99.90;;;;;;4900243;29;20516;-87
2022/04/05 12:34:01;;;;;;;9.45;5.72;;;11.90;99.90;;;;;;4920931;29;20048;-88
2022/04/05 12:36:35;;;;;;;9.52;5.50;;;11.80;99.90;;;;;;4915072;29;20056;-86
2022/04/05 12:39:06;;;;;;;10.40;5.70;;;11.70;99.90;;;;;;4896688;29;20052;-85
2022/04/05 12:41:40;;;;;;;9.88;4.95;;;11.70;99.90;;;;;;4914519;29;20067;-88
2022/04/05 12:44:10;;;;;;;8.57;4.53;;;11.70;99.90;;;;;;4918644;29;20047;-87
2022/04/05 12:46:47;;;;;;;8.43;4.25;;;11.70;99.90;;;;;;4916418;29;20047;-88
2022/04/05 12:49:14;;;;;;;9.70;4.50;;;11.60;99.90;;;;;;4886728;29;20048;-88
2022/04/05 12:51:40;;;;;;;8.85;4.80;;;11.50;99.90;;;;;;4897667;29;20095;-87
2022/04/05 12:54:32;;;;;;;9.68;4.88;;;11.50;99.90;;;;;;4913791;29;20037;-87
2022/04/05 12:57:20;;;;;;;9.43;5.07;;;11.40;99.90;;;;;;4914266;29;20044;-87
2022/04/05 12:59:49;;;;;;;10.80;6.38;;;11.30;99.90;;;;;;4881722;29;20043;-87
2022/04/05 13:02:21;;;;;;;9.65;5.40;;;11.20;99.90;;;;;;4886746;29;20052;-87